createdAt,value
2023-03-14T00:05:01.130Z,73.58
2023-03-14T00:10:11.969Z,73.49
2023-03-14T00:15:20.568Z,73.40
2023-03-14T00:20:29.368Z,73.34
2023-03-14T00:25:37.557Z,73.26
2023-03-14T00:30:46.261Z,73.16
2023-03-14T00:36:01.270Z,73.36
2023-03-14T00:41:14.756Z,73.12
2023-03-14T00:46:23.380Z,73.18
2023-03-14T00:51:31.198Z,73.05
2023-03-14T00:56:39.323Z,72.82
2023-03-14T01:01:47.928Z,72.99
2023-03-14T01:06:56.437Z,73.03
2023-03-14T01:12:04.998Z,73.06
2023-03-14T01:17:13.270Z,72.96
2023-03-14T01:22:22.681Z,73.02
2023-03-14T01:27:30.990Z,72.71
2023-03-14T01:32:39.729Z,72.90
2023-03-14T01:37:48.479Z,72.62
2023-03-14T01:43:17.800Z,72.82
2023-03-14T01:48:25.505Z,72.54
2023-03-14T01:53:34.827Z,72.70
2023-03-14T01:58:44.639Z,72.74
2023-03-14T02:03:56.290Z,72.65
2023-03-14T02:09:05.580Z,72.60
2023-03-14T02:14:26.137Z,72.45
2023-03-14T02:20:17.131Z,72.44
2023-03-14T02:25:36.146Z,72.53
2023-03-14T02:30:45.514Z,72.32
2023-03-14T02:36:00.070Z,72.36
2023-03-14T02:41:08.623Z,72.16
2023-03-14T02:46:23.938Z,72.06
2023-03-14T02:51:32.444Z,71.91
2023-03-14T02:56:40.389Z,71.87
2023-03-14T03:01:48.150Z,71.94
2023-03-14T03:06:56.918Z,71.87
2023-03-14T03:12:05.960Z,71.70
2023-03-14T03:17:14.842Z,71.61
2023-03-14T03:22:23.375Z,71.58
2023-03-14T03:27:32.098Z,71.46
2023-03-14T03:32:40.749Z,71.09
2023-03-14T03:37:49.209Z,71.17
2023-03-14T03:42:57.654Z,70.84
2023-03-14T03:48:06.922Z,70.70
2023-03-14T03:53:17.845Z,70.56
2023-03-14T03:58:33.918Z,70.27
2023-03-14T04:03:42.701Z,70.07
2023-03-14T04:08:51.305Z,70.07
2023-03-14T04:14:20.027Z,70.40
2023-03-14T04:19:28.764Z,70.13
2023-03-14T04:24:38.412Z,69.82
2023-03-14T04:29:47.840Z,69.69
2023-03-14T04:34:57.909Z,69.69
2023-03-14T04:40:08.087Z,70.31
2023-03-14T04:45:16.664Z,69.93
2023-03-14T04:50:26.512Z,69.60
2023-03-14T04:55:34.312Z,69.75
2023-03-14T05:00:41.738Z,69.75
2023-03-14T05:06:00.904Z,69.84
2023-03-14T05:11:26.906Z,69.62
2023-03-14T05:16:53.756Z,69.45
2023-03-14T05:22:24.668Z,69.50
2023-03-14T05:27:53.153Z,69.58
2023-03-14T05:33:34.310Z,69.58
2023-03-14T05:39:09.289Z,69.19
2023-03-14T05:44:35.268Z,69.31
2023-03-14T05:50:06.145Z,69.65
2023-03-14T05:55:44.006Z,69.49
2023-03-14T06:01:12.203Z,69.42
2023-03-14T06:06:42.076Z,69.41
2023-03-14T06:11:51.669Z,69.59
2023-03-14T06:17:01.964Z,69.26
2023-03-14T06:22:12.381Z,68.91
2023-03-14T06:27:21.246Z,68.98
2023-03-14T06:32:30.915Z,68.81
2023-03-14T06:37:42.941Z,68.97
2023-03-14T06:42:52.307Z,68.86
2023-03-14T06:48:00.849Z,68.72
2023-03-14T06:53:16.399Z,69.03
2023-03-14T06:58:25.394Z,69.46
2023-03-14T07:03:34.138Z,69.50
2023-03-14T07:08:44.655Z,69.42
2023-03-14T07:13:53.838Z,69.22
2023-03-14T07:19:03.003Z,69.16
2023-03-14T07:24:11.732Z,69.33
2023-03-14T07:29:20.240Z,69.53
2023-03-14T07:34:29.510Z,69.53
2023-03-14T07:39:38.814Z,69.49
2023-03-14T07:44:53.513Z,69.68
2023-03-14T07:50:02.404Z,69.43
2023-03-14T07:55:15.158Z,69.56
2023-03-14T08:00:25.452Z,69.44
2023-03-14T08:05:34.071Z,69.47
2023-03-14T08:10:42.695Z,69.27
2023-03-14T08:15:52.588Z,69.21
2023-03-14T08:21:01.562Z,68.87
2023-03-14T08:26:10.661Z,68.79
2023-03-14T08:31:19.341Z,68.95
2023-03-14T08:36:28.533Z,68.02
2023-03-14T08:41:41.690Z,67.24
2023-03-14T08:46:50.230Z,66.82
2023-03-14T08:51:58.513Z,66.42
2023-03-14T08:57:06.837Z,66.62
2023-03-14T09:02:21.902Z,66.02
2023-03-14T09:07:32.058Z,66.14
2023-03-14T09:12:40.706Z,66.21
2023-03-14T09:17:50.637Z,65.91
2023-03-14T09:22:58.017Z,65.52
2023-03-14T09:28:07.064Z,65.01
2023-03-14T09:33:15.327Z,64.71
2023-03-14T09:38:24.752Z,64.37
2023-03-14T09:43:36.959Z,63.91
2023-03-14T09:48:43.626Z,64.41
2023-03-14T09:53:53.396Z,64.56
2023-03-14T09:59:03.776Z,64.43
2023-03-14T10:04:18.250Z,64.24
2023-03-14T10:09:27.756Z,64.18
2023-03-14T10:14:39.123Z,63.80
2023-03-14T10:19:57.962Z,63.30
2023-03-14T10:25:08.664Z,63.68
2023-03-14T10:30:47.082Z,63.63
2023-03-14T10:36:00.411Z,63.83
2023-03-14T10:41:22.124Z,64.00
2023-03-14T10:46:34.003Z,64.33
2023-03-14T10:52:31.113Z,64.33
2023-03-14T10:57:45.873Z,63.89
2023-03-14T11:03:11.480Z,63.86
2023-03-14T11:08:27.975Z,63.39
2023-03-14T11:13:42.128Z,63.28
2023-03-14T11:19:06.769Z,62.94
2023-03-14T11:24:44.581Z,62.75
2023-03-14T11:30:03.947Z,62.59
2023-03-14T11:35:23.242Z,62.37
2023-03-14T11:40:32.688Z,60.45
2023-03-14T11:45:42.520Z,60.76
2023-03-14T11:50:54.979Z,60.03
2023-03-14T11:56:02.866Z,59.66
2023-03-14T12:01:14.757Z,59.61
2023-03-14T12:06:27.424Z,59.89
2023-03-14T12:11:43.377Z,59.59
2023-03-14T12:16:58.551Z,59.87
2023-03-14T12:22:27.706Z,60.00
2023-03-14T12:28:15.089Z,59.89
2023-03-14T12:33:45.012Z,59.88
2023-03-14T12:39:10.567Z,60.19
2023-03-14T12:44:47.185Z,60.11
2023-03-14T12:49:58.677Z,60.04
2023-03-14T12:55:13.216Z,60.22
2023-03-14T13:00:26.373Z,60.18
2023-03-14T13:05:36.242Z,60.33
2023-03-14T13:10:52.127Z,60.84
2023-03-14T13:16:05.246Z,61.12
2023-03-14T13:21:19.058Z,61.00
2023-03-14T13:26:29.395Z,60.84
2023-03-14T13:31:38.148Z,60.80
2023-03-14T13:36:46.122Z,61.19
2023-03-14T13:41:54.674Z,61.35
2023-03-14T13:47:05.928Z,61.60
2023-03-14T13:57:56.072Z,62.34
2023-03-14T14:03:04.909Z,62.69
2023-03-14T14:08:16.106Z,62.89
2023-03-14T14:13:29.694Z,62.89
2023-03-14T14:18:39.210Z,63.20
2023-03-14T14:23:47.849Z,63.20
2023-03-14T14:29:08.231Z,63.62
2023-03-14T14:34:27.529Z,63.85
2023-03-14T14:39:35.821Z,64.23
2023-03-14T14:44:45.803Z,64.21
2023-03-14T14:49:55.732Z,64.50
2023-03-14T14:55:06.106Z,64.43
2023-03-14T15:00:24.086Z,64.60
2023-03-14T15:05:37.923Z,64.48
2023-03-14T15:10:46.539Z,65.13
2023-03-14T15:15:57.459Z,64.68
2023-03-14T15:21:06.105Z,65.11
2023-03-14T15:26:19.132Z,64.78
2023-03-14T15:31:27.535Z,64.90
2023-03-14T15:36:38.170Z,65.46
2023-03-14T15:41:47.099Z,65.50
2023-03-14T15:46:55.747Z,65.39
2023-03-14T15:52:04.558Z,65.68
2023-03-14T15:57:15.283Z,65.47
2023-03-14T16:02:24.576Z,65.82
2023-03-14T16:07:33.775Z,65.98
2023-03-14T16:12:43.063Z,65.88
2023-03-14T16:17:54.801Z,65.61
2023-03-14T16:23:03.584Z,66.01
2023-03-14T16:28:12.166Z,65.69
2023-03-14T16:33:21.216Z,66.13
2023-03-14T16:38:33.678Z,65.93
2023-03-14T16:43:43.787Z,65.81
2023-03-14T16:48:52.591Z,65.91
2023-03-14T16:54:00.820Z,66.45
2023-03-14T16:59:09.377Z,65.90
2023-03-14T17:04:18.597Z,66.25
2023-03-14T17:09:26.870Z,66.47
2023-03-14T17:14:35.611Z,66.17
2023-03-14T17:19:43.198Z,66.20
2023-03-14T17:24:51.508Z,66.75
2023-03-14T17:29:59.878Z,66.37
2023-03-14T17:35:09.375Z,66.41
2023-03-14T17:40:18.150Z,66.80
2023-03-14T17:45:26.694Z,66.79
2023-03-14T17:50:34.265Z,66.70
2023-03-14T17:55:43.909Z,67.01
2023-03-14T18:00:52.358Z,67.00
2023-03-14T18:06:00.013Z,67.15
2023-03-14T18:11:08.116Z,67.00
2023-03-14T18:16:17.823Z,67.26
2023-03-14T18:21:26.649Z,67.41
2023-03-14T18:26:36.158Z,67.01
2023-03-14T18:31:46.771Z,67.61
2023-03-14T18:36:55.055Z,67.40
2023-03-14T18:42:04.367Z,67.74
2023-03-14T18:47:12.846Z,67.72
2023-03-14T18:52:21.242Z,67.34
2023-03-14T18:57:29.923Z,67.49
2023-03-14T19:02:38.445Z,67.66
2023-03-14T19:07:47.909Z,67.62
2023-03-14T19:12:57.618Z,68.22
2023-03-14T19:18:09.874Z,68.15
2023-03-14T19:23:18.977Z,67.76
2023-03-14T19:28:28.640Z,68.22
2023-03-14T19:33:38.181Z,68.03
2023-03-14T19:38:46.280Z,68.00
2023-03-14T19:43:55.127Z,68.43
2023-03-14T19:49:03.458Z,68.58
2023-03-14T19:54:11.688Z,68.13
2023-03-14T19:59:20.659Z,68.62
2023-03-14T20:04:29.520Z,68.50
2023-03-14T20:09:38.673Z,68.40
2023-03-14T20:14:47.775Z,68.33
2023-03-14T20:19:55.255Z,68.31
2023-03-14T20:25:05.285Z,68.56
2023-03-14T20:30:17.996Z,68.40
2023-03-14T20:35:25.591Z,68.69
2023-03-14T20:40:34.442Z,68.49
2023-03-14T20:45:43.069Z,68.61
2023-03-14T20:50:51.898Z,68.64
2023-03-14T20:56:00.658Z,68.64
2023-03-14T21:01:08.639Z,68.89
2023-03-14T21:06:16.506Z,68.77
2023-03-14T21:11:25.027Z,68.72
2023-03-14T21:16:33.287Z,69.10
2023-03-14T21:21:42.164Z,69.14
2023-03-14T21:26:51.127Z,69.06
2023-03-14T21:31:58.934Z,69.07
2023-03-14T21:37:07.654Z,69.09
2023-03-14T21:42:15.851Z,69.04
2023-03-14T21:47:25.100Z,68.99
2023-03-14T21:52:34.136Z,68.98
2023-03-14T21:57:42.535Z,68.68
2023-03-14T22:03:23.999Z,68.89
2023-03-14T22:08:24.030Z,68.78
2023-03-14T22:13:31.882Z,68.60
2023-03-14T22:18:39.493Z,68.60
2023-03-14T22:23:46.925Z,68.65
2023-03-14T22:28:55.055Z,68.81
2023-03-14T22:34:03.386Z,68.78
2023-03-14T22:39:12.665Z,68.80
2023-03-14T22:44:21.251Z,68.58
2023-03-14T22:49:29.820Z,68.74
2023-03-14T22:54:38.142Z,68.61
2023-03-14T22:59:46.629Z,68.81
2023-03-14T23:04:55.064Z,68.70
2023-03-14T23:10:04.428Z,68.45
2023-03-14T23:15:15.910Z,68.72
2023-03-14T23:20:24.497Z,68.70
2023-03-14T23:25:38.520Z,67.68
2023-03-14T23:30:50.010Z,66.43
2023-03-14T23:35:58.581Z,65.51
2023-03-14T23:41:07.423Z,64.70
2023-03-14T23:46:16.731Z,64.26
2023-03-14T23:51:25.710Z,63.86
2023-03-14T23:56:34.189Z,63.61
